Ji_gui — V3WJ4 — position and weather

sailwx.info

Track history (hours):
 
Tides and Currents Weather Stations Pressure Air Temp Water Temp Dewpoint Dewpoint Depression Visibility Wind Speed Wind Dir Waves Ship Positions

Ji_gui

Last reported at 2018-Apr-21 08:00 UTC. Time now 2018-Apr-21 07:59 UTC.
Position N 33°32' E 131°50'.

Length 100 m; draft 5.4 m.

Type: Cargo ship. MMSI: 312889000.

Date/timePositionNaut miles runAvg speedWind from/ knotsBaromVisibWave heightAir tempDewpointWater temp
2018-Apr-21 08:00N 33°32' E 131°50'510.6
2018-Apr-21 07:30N 33°37' E 131°48'510.8
2018-Apr-21 07:00N 33°42' E 131°45'510.3
2018-Apr-21 06:30N 33°46' E 131°41'510.6
2018-Apr-21 06:00N 33°47' E 131°34'510.7
2018-Apr-21 05:30N 33°48' E 131°28'510.7
2018-Apr-21 05:00N 33°50' E 131°22'511.0
2018-Apr-21 04:30N 33°51' E 131°15'510.6
2018-Apr-21 04:00N 33°53' E 131°09'510.4
2018-Apr-21 03:30N 33°56' E 131°04'5 9.3
2018-Apr-21 03:00N 33°58' E 130°60'4 7.3
2018-Apr-21 02:30N 33°56' E 130°56'3 5.6
2018-Apr-21 02:00N 33°55' E 130°53'4 8.9
2018-Apr-21 01:30N 33°60' E 130°52'510.4
2018-Apr-21 01:00N 34°02' E 130°47'510.5
2018-Apr-21 00:30N 34°02' E 130°40'611.1
2018-Apr-21 00:00N 34°02' E 130°34'611.3
2018-Apr-20 23:30N 34°02' E 130°27'611.5
2018-Apr-20 23:00N 34°02' E 130°20'611.6
2018-Apr-20 22:30N 34°02' E 130°13'611.4
2018-Apr-20 22:00N 34°01' E 130°06'611.4
2018-Apr-20 21:30N 34°01' E 129°59'611.7
2018-Apr-20 20:58N 34°01' E 129°52'612.2
2018-Apr-20 20:30N 34°01' E 129°45'612.0
2018-Apr-20 20:00N 34°01' E 129°37'611.9
2018-Apr-20 19:29N 34°01' E 129°30'612.0
2018-Apr-20 19:00N 34°01' E 129°23'712.0
2018-Apr-20 18:24N 34°00' E 129°14'611.9
2018-Apr-20 17:55N 34°00' E 129°07'511.8
2018-Apr-20 17:29N 33°60' E 129°01'511.5
2018-Apr-20 17:00N 33°60' E 128°55'611.7
2018-Apr-20 16:30N 33°60' E 128°48'611.9
2018-Apr-20 16:00N 33°59' E 128°40'611.6
2018-Apr-20 15:28N 33°59' E 128°33'511.3
2018-Apr-20 14:59N 33°59' E 128°26'1610.8
2018-Apr-20 13:32N 33°59' E 128°08'110.6
2018-Apr-20 13:28N 33°59' E 128°07'810.8
2018-Apr-20 12:44N 33°58' E 127°57'310.8
2018-Apr-20 12:29N 33°58' E 127°54'610.8
2018-Apr-20 11:58N 33°58' E 127°47'2311.7
2018-Apr-20 10:02N 33°57' E 127°20'111.7
2018-Apr-20 09:55N 33°57' E 127°18'512.4
2018-Apr-20 09:29N 33°59' E 127°12'  
2018-Apr-13 10:02N 38°17' E 121°57'2 9.9
2018-Apr-13 09:53N 38°17' E 121°59'410.0
2018-Apr-13 09:30N 38°15' E 122°03'510.1
2018-Apr-13 08:59N 38°14' E 122°10'510.1
2018-Apr-13 08:30N 38°12' E 122°16'510.1
2018-Apr-13 07:59N 38°10' E 122°22'510.3
2018-Apr-13 07:30N 38°09' E 122°28'  
Track history (hours):
 
Tides and Currents Weather Stations Pressure Air Temp Water Temp Dewpoint Dewpoint Depression Visibility Wind Speed Wind Dir Waves Ship Positions

Ji_gui

Last reported at 2018-Apr-21 08:00 UTC. Time now 2018-Apr-21 07:59 UTC.
Position N 33°32' E 131°50'.

Length 100 m; draft 5.4 m.

Type: Cargo ship. MMSI: 312889000.

Date/timePositionNaut miles runAvg speedWind from/ knotsBaromVisibWave heightAir tempDewpointWater temp
2018-Apr-21 08:00N 33°32' E 131°50'510.6
2018-Apr-21 07:30N 33°37' E 131°48'510.8
2018-Apr-21 07:00N 33°42' E 131°45'510.3
2018-Apr-21 06:30N 33°46' E 131°41'510.6
2018-Apr-21 06:00N 33°47' E 131°34'510.7
2018-Apr-21 05:30N 33°48' E 131°28'510.7
2018-Apr-21 05:00N 33°50' E 131°22'511.0
2018-Apr-21 04:30N 33°51' E 131°15'510.6
2018-Apr-21 04:00N 33°53' E 131°09'510.4
2018-Apr-21 03:30N 33°56' E 131°04'5 9.3
2018-Apr-21 03:00N 33°58' E 130°60'4 7.3
2018-Apr-21 02:30N 33°56' E 130°56'3 5.6
2018-Apr-21 02:00N 33°55' E 130°53'4 8.9
2018-Apr-21 01:30N 33°60' E 130°52'510.4
2018-Apr-21 01:00N 34°02' E 130°47'510.5
2018-Apr-21 00:30N 34°02' E 130°40'611.1
2018-Apr-21 00:00N 34°02' E 130°34'611.3
2018-Apr-20 23:30N 34°02' E 130°27'611.5
2018-Apr-20 23:00N 34°02' E 130°20'611.6
2018-Apr-20 22:30N 34°02' E 130°13'611.4
2018-Apr-20 22:00N 34°01' E 130°06'611.4
2018-Apr-20 21:30N 34°01' E 129°59'611.7
2018-Apr-20 20:58N 34°01' E 129°52'612.2
2018-Apr-20 20:30N 34°01' E 129°45'612.0
2018-Apr-20 20:00N 34°01' E 129°37'611.9
2018-Apr-20 19:29N 34°01' E 129°30'612.0
2018-Apr-20 19:00N 34°01' E 129°23'712.0
2018-Apr-20 18:24N 34°00' E 129°14'611.9
2018-Apr-20 17:55N 34°00' E 129°07'511.8
2018-Apr-20 17:29N 33°60' E 129°01'511.5
2018-Apr-20 17:00N 33°60' E 128°55'611.7
2018-Apr-20 16:30N 33°60' E 128°48'611.9
2018-Apr-20 16:00N 33°59' E 128°40'611.6
2018-Apr-20 15:28N 33°59' E 128°33'511.3
2018-Apr-20 14:59N 33°59' E 128°26'1610.8
2018-Apr-20 13:32N 33°59' E 128°08'110.6
2018-Apr-20 13:28N 33°59' E 128°07'810.8
2018-Apr-20 12:44N 33°58' E 127°57'310.8
2018-Apr-20 12:29N 33°58' E 127°54'610.8
2018-Apr-20 11:58N 33°58' E 127°47'2311.7
2018-Apr-20 10:02N 33°57' E 127°20'111.7
2018-Apr-20 09:55N 33°57' E 127°18'512.4
2018-Apr-20 09:29N 33°59' E 127°12'  
2018-Apr-13 10:02N 38°17' E 121°57'2 9.9
2018-Apr-13 09:53N 38°17' E 121°59'410.0
2018-Apr-13 09:30N 38°15' E 122°03'510.1
2018-Apr-13 08:59N 38°14' E 122°10'510.1
2018-Apr-13 08:30N 38°12' E 122°16'510.1
2018-Apr-13 07:59N 38°10' E 122°22'510.3
2018-Apr-13 07:30N 38°09' E 122°28'  

Dump ship's entire track history